createdAt,value
2022-11-05T00:00:32.982Z,79.70
2022-11-05T00:03:19.043Z,78.89
2022-11-05T00:06:07.513Z,79.30
2022-11-05T00:08:53.388Z,78.95
2022-11-05T00:11:40.547Z,78.57
2022-11-05T00:14:26.222Z,78.23
2022-11-05T00:16:53.197Z,78.34
2022-11-05T00:19:20.154Z,78.32
2022-11-05T00:22:05.934Z,77.44
2022-11-05T00:24:51.533Z,77.79
2022-11-05T00:27:18.455Z,77.37
2022-11-05T00:29:45.500Z,77.40
2022-11-05T00:32:13.203Z,78.20
2022-11-05T00:34:40.092Z,78.89
2022-11-05T00:37:07.569Z,79.45
2022-11-05T00:39:35.225Z,78.65
2022-11-05T00:42:20.822Z,78.34
2022-11-05T00:45:02.910Z,78.58
2022-11-05T00:47:51.075Z,78.97
2022-11-05T00:50:20.501Z,78.53
2022-11-05T00:53:00.377Z,78.14
2022-11-05T00:55:42.445Z,77.82
2022-11-05T00:58:12.884Z,78.02
2022-11-05T01:00:48.878Z,77.44
2022-11-05T01:03:19.002Z,78.41
2022-11-05T01:05:50.832Z,77.85
2022-11-05T01:08:21.280Z,78.02
2022-11-05T01:10:52.287Z,78.05
2022-11-05T01:13:29.553Z,78.53
2022-11-05T01:15:57.595Z,78.26
2022-11-05T01:18:24.743Z,78.07
2022-11-05T01:20:51.758Z,77.30
2022-11-05T01:23:19.158Z,77.45
2022-11-05T01:25:46.459Z,77.56
2022-11-05T01:28:13.457Z,77.62
2022-11-05T01:30:40.457Z,76.66
2022-11-05T01:33:07.865Z,77.61
2022-11-05T01:35:34.962Z,77.86
2022-11-05T01:38:02.576Z,77.56
2022-11-05T01:40:29.834Z,78.20
2022-11-05T01:42:56.724Z,77.74
2022-11-05T01:45:27.160Z,77.97
2022-11-05T01:48:18.811Z,77.58
2022-11-05T01:51:03.277Z,77.55
2022-11-05T01:53:36.954Z,77.86
2022-11-05T01:56:15.241Z,77.63
2022-11-05T01:58:57.285Z,77.63
2022-11-05T02:01:24.951Z,77.87
2022-11-05T02:03:56.441Z,77.45
2022-11-05T02:06:23.441Z,77.67
2022-11-05T02:09:07.188Z,77.98
2022-11-05T02:11:34.763Z,77.25
2022-11-05T02:14:01.811Z,77.17
2022-11-05T02:16:45.001Z,76.80
2022-11-05T02:19:30.171Z,77.12
2022-11-05T02:22:25.671Z,76.79
2022-11-05T02:25:02.855Z,76.99
2022-11-05T02:27:41.561Z,77.49
2022-11-05T02:30:51.868Z,76.89
2022-11-05T02:33:41.477Z,76.61
2022-11-05T02:36:28.848Z,76.79
2022-11-05T02:39:17.131Z,77.04
2022-11-05T02:42:12.171Z,76.68
2022-11-05T02:44:57.695Z,76.87
2022-11-05T02:47:46.039Z,77.24
2022-11-05T02:50:24.462Z,76.26
2022-11-05T02:53:17.769Z,76.31
2022-11-05T02:56:05.461Z,77.48
2022-11-05T02:58:35.889Z,77.22
2022-11-05T03:01:06.959Z,76.46
2022-11-05T03:03:54.227Z,76.59
2022-11-05T03:06:48.357Z,77.60
2022-11-05T03:09:59.021Z,77.54
2022-11-05T03:13:01.351Z,77.52
2022-11-05T03:15:48.789Z,77.02
2022-11-05T03:18:32.991Z,76.45
2022-11-05T03:21:12.704Z,77.02
2022-11-05T03:23:56.852Z,76.87
2022-11-05T03:26:33.359Z,76.67
2022-11-05T03:29:19.643Z,77.34
2022-11-05T03:31:49.511Z,76.67
2022-11-05T03:34:22.456Z,77.10
2022-11-05T03:36:54.329Z,77.11
2022-11-05T03:39:29.709Z,76.22
2022-11-05T03:41:58.154Z,76.50
2022-11-05T03:44:34.713Z,76.65
2022-11-05T03:47:07.033Z,76.69
2022-11-05T03:49:44.110Z,76.27
2022-11-05T03:52:20.002Z,76.27
2022-11-05T03:54:47.470Z,75.94
2022-11-05T03:57:32.898Z,76.13
2022-11-05T04:00:00.107Z,76.48
2022-11-05T04:02:27.474Z,76.30
2022-11-05T04:04:55.327Z,76.49
2022-11-05T04:07:40.602Z,76.16
2022-11-05T04:10:26.604Z,76.10
2022-11-05T04:13:12.435Z,76.37
2022-11-05T04:15:57.965Z,76.62
2022-11-05T04:18:24.988Z,77.01
2022-11-05T04:21:10.467Z,76.67
2022-11-05T04:23:56.105Z,75.98
2022-11-05T04:26:23.595Z,76.96
2022-11-05T04:29:10.449Z,76.29
2022-11-05T04:31:38.591Z,76.49
2022-11-05T04:34:05.934Z,76.44
2022-11-05T04:36:33.433Z,76.74
2022-11-05T04:39:00.513Z,76.57
2022-11-05T04:41:27.505Z,76.42
2022-11-05T04:43:54.443Z,76.67
2022-11-05T04:46:21.624Z,77.00
2022-11-05T04:48:48.618Z,76.53
2022-11-05T04:51:15.525Z,76.04
2022-11-05T04:53:42.458Z,75.86
2022-11-05T04:56:20.467Z,76.35
2022-11-05T04:58:48.545Z,76.32
2022-11-05T05:01:19.191Z,76.84
2022-11-05T05:03:55.580Z,76.28
2022-11-05T05:06:23.215Z,76.08
2022-11-05T05:08:52.132Z,77.16
2022-11-05T05:11:21.901Z,76.61
2022-11-05T05:13:49.862Z,77.24
2022-11-05T05:16:26.532Z,76.67
2022-11-05T05:18:54.384Z,76.63
2022-11-05T05:21:38.737Z,76.46
2022-11-05T05:24:18.630Z,76.39
2022-11-05T05:26:48.943Z,76.76
2022-11-05T05:29:17.628Z,76.36
2022-11-05T05:31:45.334Z,76.46
2022-11-05T05:34:14.162Z,76.61
2022-11-05T05:36:41.289Z,76.37
2022-11-05T05:39:10.983Z,76.17
2022-11-05T05:41:38.768Z,76.65
2022-11-05T05:44:06.555Z,76.03
2022-11-05T05:46:33.790Z,76.24
2022-11-05T05:49:00.848Z,76.25
2022-11-05T05:51:27.827Z,76.59
2022-11-05T05:53:54.969Z,76.36
2022-11-05T05:56:22.296Z,76.03
2022-11-05T05:58:49.694Z,76.77
2022-11-05T06:01:20.006Z,75.91
2022-11-05T06:03:48.991Z,76.92
2022-11-05T06:06:19.999Z,76.39
2022-11-05T06:08:47.796Z,76.23
2022-11-05T06:11:14.889Z,76.81
2022-11-05T06:13:42.004Z,76.66
2022-11-05T06:16:10.059Z,77.08
2022-11-05T06:18:37.796Z,77.20
2022-11-05T06:21:11.740Z,77.18
2022-11-05T06:23:40.919Z,77.18
2022-11-05T06:26:11.865Z,77.40
2022-11-05T06:28:39.224Z,78.20
2022-11-05T06:31:06.803Z,78.52
2022-11-05T06:33:33.934Z,79.12
2022-11-05T06:36:03.011Z,79.35
2022-11-05T06:38:34.736Z,79.07
2022-11-05T06:41:09.875Z,79.70
2022-11-05T06:43:38.462Z,79.37
2022-11-05T06:46:05.886Z,79.77
2022-11-05T06:48:34.060Z,79.79
2022-11-05T06:51:01.553Z,80.25
2022-11-05T06:53:30.827Z,80.64
2022-11-05T06:55:57.804Z,81.52
2022-11-05T06:58:24.865Z,81.39
2022-11-05T07:00:52.232Z,81.82
2022-11-05T07:03:19.430Z,82.42
2022-11-05T07:05:49.740Z,82.49
2022-11-05T07:08:17.420Z,83.46
2022-11-05T07:10:44.438Z,83.75
2022-11-05T07:13:11.885Z,84.49
2022-11-05T07:15:39.233Z,84.25
2022-11-05T07:18:09.933Z,84.71
2022-11-05T07:20:36.900Z,84.07
2022-11-05T07:23:08.671Z,84.49
2022-11-05T07:25:36.495Z,84.61
2022-11-05T07:28:04.409Z,84.50
2022-11-05T07:30:33.977Z,84.71
2022-11-05T07:33:01.531Z,84.61
2022-11-05T07:35:29.122Z,85.08
2022-11-05T07:37:56.936Z,85.15
2022-11-05T07:40:27.627Z,85.28
2022-11-05T07:43:01.077Z,85.47
2022-11-05T07:45:31.041Z,85.30
2022-11-05T07:48:03.861Z,85.64
2022-11-05T07:50:35.040Z,86.30
2022-11-05T07:53:15.676Z,86.17
2022-11-05T07:55:44.206Z,85.22
2022-11-05T07:58:11.385Z,85.90
2022-11-05T08:00:38.974Z,85.38
2022-11-05T08:03:15.902Z,85.44
2022-11-05T08:05:46.237Z,84.73
2022-11-05T08:08:16.612Z,85.28
2022-11-05T08:10:43.657Z,84.83
2022-11-05T08:13:12.321Z,84.81
2022-11-05T08:15:40.885Z,84.08
2022-11-05T08:18:12.714Z,83.88
2022-11-05T08:20:40.799Z,83.28
2022-11-05T08:23:08.110Z,83.09
2022-11-05T08:25:35.464Z,82.59
2022-11-05T08:28:07.767Z,82.92
2022-11-05T08:30:35.786Z,82.21
2022-11-05T08:33:07.989Z,82.90
2022-11-05T08:35:36.631Z,82.62
2022-11-05T08:38:07.326Z,82.14
2022-11-05T08:40:36.265Z,81.36
2022-11-05T08:43:06.731Z,81.12
2022-11-05T08:45:38.233Z,81.31
2022-11-05T08:48:10.419Z,81.46
2022-11-05T08:50:38.703Z,82.13
2022-11-05T08:53:06.604Z,82.08
2022-11-05T08:55:34.077Z,80.20
2022-11-05T08:58:15.171Z,80.75
2022-11-05T09:00:45.305Z,80.00
2022-11-05T09:03:13.307Z,79.93
2022-11-05T09:05:43.041Z,79.91
2022-11-05T09:08:14.801Z,79.92
2022-11-05T09:10:49.542Z,80.23
2022-11-05T09:13:19.685Z,79.17
2022-11-05T09:15:49.165Z,79.44
2022-11-05T09:18:18.134Z,79.66
2022-11-05T09:20:45.309Z,79.06
2022-11-05T09:23:15.104Z,78.99
2022-11-05T09:25:43.054Z,78.03
2022-11-05T09:28:18.825Z,78.26
2022-11-05T09:30:51.719Z,77.87
2022-11-05T09:33:23.401Z,77.21
2022-11-05T09:35:51.809Z,77.23
2022-11-05T09:38:19.526Z,76.20
2022-11-05T09:41:02.991Z,76.31
2022-11-05T09:43:50.070Z,77.05
2022-11-05T09:46:24.552Z,77.31
2022-11-05T09:49:02.226Z,76.93
2022-11-05T09:51:29.670Z,76.58
2022-11-05T09:53:59.680Z,75.83
2022-11-05T09:56:31.454Z,76.05
2022-11-05T09:59:09.008Z,76.06
2022-11-05T10:01:38.358Z,76.83
2022-11-05T10:04:18.740Z,76.50
2022-11-05T10:06:55.714Z,74.38
2022-11-05T10:09:49.632Z,74.44
2022-11-05T10:12:26.534Z,73.61
2022-11-05T10:15:37.438Z,73.87
2022-11-05T10:18:30.819Z,74.44
2022-11-05T10:20:58.388Z,73.94
2022-11-05T10:23:27.678Z,73.39
2022-11-05T10:26:00.544Z,72.72
2022-11-05T10:28:30.989Z,72.04
2022-11-05T10:31:08.422Z,71.90
2022-11-05T10:33:56.934Z,71.90
2022-11-05T10:36:30.038Z,72.85
2022-11-05T10:39:13.981Z,72.04
2022-11-05T10:42:37.005Z,71.89
2022-11-05T10:45:29.312Z,71.78
2022-11-05T10:48:33.650Z,72.04
2022-11-05T10:51:01.598Z,70.72
2022-11-05T10:53:36.346Z,71.12
2022-11-05T10:56:03.915Z,70.65
2022-11-05T10:58:35.329Z,71.28
2022-11-05T11:01:08.722Z,71.52
2022-11-05T11:03:48.833Z,70.74
2022-11-05T11:06:31.473Z,70.90
2022-11-05T11:09:06.484Z,71.29
2022-11-05T11:11:42.647Z,70.87
2022-11-05T11:14:20.908Z,71.15
2022-11-05T11:16:57.184Z,70.71
2022-11-05T11:19:27.833Z,69.64
2022-11-05T11:22:04.698Z,70.22
2022-11-05T11:24:43.461Z,69.70
2022-11-05T11:27:20.099Z,69.26
2022-11-05T11:29:56.969Z,69.94
2022-11-05T11:32:38.984Z,69.62
2022-11-05T11:35:18.064Z,69.25
2022-11-05T11:37:47.184Z,69.15
2022-11-05T11:40:22.890Z,68.29
2022-11-05T11:42:57.810Z,68.47
2022-11-05T11:45:46.144Z,68.37
2022-11-05T11:48:20.123Z,68.35
2022-11-05T11:50:48.976Z,68.21
2022-11-05T11:53:20.647Z,67.80
2022-11-05T11:56:02.795Z,67.67
2022-11-05T11:59:03.357Z,67.90
2022-11-05T12:01:56.976Z,68.29
2022-11-05T12:04:51.227Z,66.69
2022-11-05T12:07:41.721Z,66.23
2022-11-05T12:10:48.916Z,66.30
2022-11-05T12:13:19.077Z,66.30
2022-11-05T12:16:09.709Z,66.63
2022-11-05T12:19:00.113Z,65.20
2022-11-05T12:21:54.315Z,65.34
2022-11-05T12:24:37.328Z,65.43
2022-11-05T12:27:41.455Z,64.27
2022-11-05T12:30:18.893Z,63.57
2022-11-05T12:33:17.431Z,62.22
2022-11-05T12:36:02.680Z,62.25
2022-11-05T12:38:44.752Z,61.44
2022-11-05T12:41:32.865Z,60.23
2022-11-05T12:44:37.530Z,60.81
2022-11-05T12:47:47.380Z,61.40
2022-11-05T12:51:04.736Z,59.96
2022-11-05T12:53:55.084Z,58.56
2022-11-05T12:56:35.093Z,57.11
2022-11-05T12:59:33.892Z,57.33
2022-11-05T13:02:20.706Z,56.64
2022-11-05T13:04:58.023Z,54.49
2022-11-05T13:07:38.954Z,53.26
2022-11-05T13:10:27.242Z,53.53
2022-11-05T13:13:18.313Z,54.47
2022-11-05T13:15:55.144Z,55.15
2022-11-05T13:18:33.422Z,53.81
2022-11-05T13:21:06.797Z,54.02
2022-11-05T13:24:02.848Z,53.29
2022-11-05T13:26:40.135Z,53.29
2022-11-05T13:29:33.392Z,52.71
2022-11-05T13:32:17.174Z,53.08
2022-11-05T13:34:44.130Z,52.26
2022-11-05T13:37:31.676Z,51.63
2022-11-05T13:40:05.574Z,51.04
2022-11-05T13:42:48.399Z,51.14
2022-11-05T13:46:01.421Z,51.75
2022-11-05T13:49:05.524Z,50.99
2022-11-05T13:51:46.102Z,50.04
2022-11-05T13:54:23.109Z,49.65
2022-11-05T13:57:34.126Z,49.90
2022-11-05T14:00:23.467Z,50.02
2022-11-05T14:03:15.054Z,49.68
2022-11-05T14:05:43.664Z,49.68
2022-11-05T14:08:18.008Z,50.04
2022-11-05T14:10:58.678Z,49.60
2022-11-05T14:13:32.567Z,49.70
2022-11-05T14:16:08.011Z,50.31
2022-11-05T14:18:52.936Z,50.71
2022-11-05T14:21:25.846Z,50.65
2022-11-05T14:23:59.181Z,50.90
2022-11-05T14:26:29.911Z,51.54
2022-11-05T14:29:02.941Z,51.21
2022-11-05T14:34:46.279Z,51.53
2022-11-05T14:37:13.142Z,52.45
2022-11-05T14:39:41.872Z,52.22
2022-11-05T14:42:15.085Z,51.71
2022-11-05T14:45:07.075Z,52.00
2022-11-05T14:47:43.432Z,52.26
2022-11-05T14:50:39.090Z,52.41
2022-11-05T14:53:35.216Z,51.99
2022-11-05T14:56:15.690Z,52.81
2022-11-05T14:58:45.002Z,52.14
2022-11-05T15:01:15.029Z,52.38
2022-11-05T15:03:46.202Z,52.31
2022-11-05T15:06:33.646Z,52.35
2022-11-05T15:09:03.617Z,52.43
2022-11-05T15:11:38.549Z,52.50
2022-11-05T15:14:19.975Z,52.41
2022-11-05T15:16:56.205Z,52.48
2022-11-05T15:19:34.214Z,52.95
2022-11-05T15:22:07.205Z,52.97
2022-11-05T15:24:35.218Z,53.61
2022-11-05T15:27:18.816Z,53.96
2022-11-05T15:29:45.979Z,55.00
2022-11-05T15:32:24.706Z,55.23
2022-11-05T15:34:56.361Z,55.23
2022-11-05T15:37:27.006Z,55.61
2022-11-05T15:39:55.572Z,56.08
2022-11-05T15:42:26.555Z,56.12
2022-11-05T15:45:00.398Z,57.06
2022-11-05T15:47:30.541Z,57.04
2022-11-05T15:50:01.545Z,57.91
2022-11-05T15:52:42.173Z,57.91
2022-11-05T15:55:12.108Z,57.73
2022-11-05T15:57:50.952Z,57.68
2022-11-05T16:00:31.963Z,58.52
2022-11-05T16:03:01.594Z,58.59
2022-11-05T16:05:34.448Z,59.07
2022-11-05T16:08:05.217Z,59.53
2022-11-05T16:10:37.811Z,59.86
2022-11-05T16:13:34.924Z,59.16
2022-11-05T16:16:23.467Z,59.48
2022-11-05T16:18:50.907Z,59.02
2022-11-05T16:21:22.742Z,58.77
2022-11-05T16:23:49.740Z,59.33
2022-11-05T16:29:39.049Z,60.94
2022-11-05T16:32:19.290Z,61.00
2022-11-05T16:34:51.326Z,61.24
2022-11-05T16:37:21.748Z,61.68
2022-11-05T16:39:48.832Z,61.07
2022-11-05T16:42:24.633Z,61.45
2022-11-05T16:44:55.168Z,60.33
2022-11-05T16:47:23.097Z,60.41
2022-11-05T16:49:50.877Z,59.94
2022-11-05T16:52:18.598Z,60.80
2022-11-05T16:54:45.570Z,61.07
2022-11-05T16:57:29.896Z,61.04
2022-11-05T16:59:59.185Z,61.45
2022-11-05T17:02:27.467Z,61.89
2022-11-05T17:04:54.614Z,61.70
2022-11-05T17:07:21.620Z,61.58
2022-11-05T17:09:48.661Z,61.82
2022-11-05T17:12:16.542Z,62.23
2022-11-05T17:14:43.457Z,62.74
2022-11-05T17:17:10.660Z,62.84
2022-11-05T17:19:42.952Z,62.70
2022-11-05T17:22:10.857Z,62.86
2022-11-05T17:24:38.915Z,63.11
2022-11-05T17:27:05.998Z,63.86
2022-11-05T17:29:32.899Z,63.29
2022-11-05T17:31:59.806Z,64.13
2022-11-05T17:34:26.720Z,64.12
2022-11-05T17:36:53.652Z,64.53
2022-11-05T17:39:23.140Z,64.37
2022-11-05T17:41:52.294Z,64.76
2022-11-05T17:44:19.564Z,64.90
2022-11-05T17:46:46.602Z,65.27
2022-11-05T17:49:13.497Z,65.58
2022-11-05T17:51:40.378Z,65.59
2022-11-05T17:54:07.576Z,66.01
2022-11-05T17:56:40.271Z,65.76
2022-11-05T17:59:10.591Z,65.84
2022-11-05T18:01:43.149Z,65.93
2022-11-05T18:04:10.998Z,66.34
2022-11-05T18:06:40.649Z,66.57
2022-11-05T18:09:10.184Z,66.30
2022-11-05T18:11:38.188Z,67.32
2022-11-05T18:14:05.451Z,66.47
2022-11-05T18:16:33.097Z,66.67
2022-11-05T18:19:00.361Z,66.84
2022-11-05T18:21:27.912Z,66.94
2022-11-05T18:23:54.987Z,67.09
2022-11-05T18:26:22.009Z,67.82
2022-11-05T18:28:49.300Z,67.30
2022-11-05T18:31:20.957Z,67.83
2022-11-05T18:33:49.401Z,66.67
2022-11-05T18:36:22.953Z,67.63
2022-11-05T18:38:50.517Z,67.95
2022-11-05T18:41:18.864Z,68.34
2022-11-05T18:43:46.530Z,68.58
2022-11-05T18:46:35.815Z,68.33
2022-11-05T18:49:01.099Z,68.47
2022-11-05T18:51:28.235Z,68.93
2022-11-05T18:53:56.320Z,68.86
2022-11-05T18:56:23.976Z,68.76
2022-11-05T18:59:14.684Z,69.16
2022-11-05T19:01:41.309Z,68.75
2022-11-05T19:04:08.889Z,69.11
2022-11-05T19:06:38.546Z,69.58
2022-11-05T19:09:08.905Z,69.34
2022-11-05T19:11:36.402Z,69.77
2022-11-05T19:14:03.417Z,70.00
2022-11-05T19:16:31.100Z,69.39
2022-11-05T19:19:00.584Z,69.82
2022-11-05T19:21:28.184Z,69.68
2022-11-05T19:24:00.159Z,69.83
2022-11-05T19:26:29.147Z,69.39
2022-11-05T19:29:01.789Z,70.23
2022-11-05T19:31:30.780Z,69.90
2022-11-05T19:33:58.462Z,70.40
2022-11-05T19:36:25.867Z,70.19
2022-11-05T19:39:00.017Z,70.72
2022-11-05T19:41:27.319Z,71.00
2022-11-05T19:43:55.088Z,70.35
2022-11-05T19:46:23.929Z,70.46
2022-11-05T19:48:51.193Z,70.82
2022-11-05T19:51:27.677Z,70.56
2022-11-05T19:53:55.378Z,70.67
2022-11-05T19:56:27.203Z,71.31
2022-11-05T19:58:54.803Z,71.12
2022-11-05T20:01:24.562Z,70.96
2022-11-05T20:03:52.145Z,70.95
2022-11-05T20:06:24.119Z,71.20
2022-11-05T20:09:20.019Z,71.31
2022-11-05T20:11:40.404Z,70.85
2022-11-05T20:14:09.388Z,71.12
2022-11-05T20:16:38.987Z,72.01
2022-11-05T20:19:17.222Z,71.69
2022-11-05T20:21:45.546Z,71.44
2022-11-05T20:24:20.508Z,71.39
2022-11-05T20:26:54.864Z,71.98
2022-11-05T20:29:22.781Z,71.40
2022-11-05T20:31:50.664Z,72.01
2022-11-05T20:34:18.358Z,71.82
2022-11-05T20:36:45.722Z,72.01
2022-11-05T20:39:12.800Z,72.73
2022-11-05T20:41:39.973Z,71.73
2022-11-05T20:44:06.988Z,72.68
2022-11-05T20:46:34.208Z,71.91
2022-11-05T20:49:01.147Z,71.98
2022-11-05T20:51:28.322Z,71.43
2022-11-05T20:54:00.992Z,72.17
2022-11-05T20:56:32.000Z,72.17
2022-11-05T20:59:00.788Z,71.76
2022-11-05T21:01:31.381Z,72.60
2022-11-05T21:03:59.617Z,72.56
2022-11-05T21:06:26.631Z,72.30
2022-11-05T21:08:53.982Z,72.73
2022-11-05T21:11:21.390Z,72.53
2022-11-05T21:13:48.765Z,72.99
2022-11-05T21:16:19.033Z,72.73
2022-11-05T21:18:47.789Z,73.01
2022-11-05T21:21:20.206Z,72.54
2022-11-05T21:23:47.436Z,72.96
2022-11-05T21:26:16.810Z,72.99
2022-11-05T21:28:44.047Z,72.43
2022-11-05T21:31:11.276Z,72.67
2022-11-05T21:33:38.804Z,73.17
2022-11-05T21:36:13.211Z,72.97
2022-11-05T21:38:40.701Z,73.19
2022-11-05T21:41:10.504Z,73.28
2022-11-05T21:43:39.679Z,74.25
2022-11-05T21:46:06.670Z,73.76
2022-11-05T21:48:34.032Z,73.80
2022-11-05T21:51:19.848Z,73.88
2022-11-05T21:54:05.767Z,73.10
2022-11-05T21:56:52.383Z,73.47
2022-11-05T21:59:41.580Z,73.42
2022-11-05T22:02:12.021Z,73.78
2022-11-05T22:04:43.027Z,73.73
2022-11-05T22:07:13.755Z,73.96
2022-11-05T22:09:41.240Z,74.02
2022-11-05T22:12:09.173Z,74.08
2022-11-05T22:14:36.600Z,73.40
2022-11-05T22:17:04.276Z,73.37
2022-11-05T22:19:32.032Z,72.84
2022-11-05T22:21:59.454Z,72.73
2022-11-05T22:24:31.874Z,73.55
2022-11-05T22:27:04.722Z,73.08
2022-11-05T22:29:31.694Z,74.11
2022-11-05T22:31:59.149Z,73.47
2022-11-05T22:34:26.692Z,74.01
2022-11-05T22:36:54.555Z,73.99
2022-11-05T22:39:21.734Z,73.85
2022-11-05T22:41:49.662Z,74.23
2022-11-05T22:44:17.354Z,73.74
2022-11-05T22:46:44.538Z,74.35
2022-11-05T22:49:12.182Z,74.56
2022-11-05T22:51:40.055Z,73.77
2022-11-05T22:54:07.873Z,73.25
2022-11-05T22:56:40.861Z,73.27
2022-11-05T22:59:14.138Z,73.53
2022-11-05T23:01:43.524Z,73.55
2022-11-05T23:04:12.218Z,73.48
2022-11-05T23:06:58.751Z,73.96
2022-11-05T23:09:53.440Z,73.30
2022-11-05T23:12:37.943Z,74.16
2022-11-05T23:15:06.821Z,74.60
2022-11-05T23:17:52.202Z,73.87
2022-11-05T23:20:42.195Z,74.00
2022-11-05T23:23:31.596Z,74.03
2022-11-05T23:26:22.360Z,74.06
2022-11-05T23:28:49.733Z,74.54
2022-11-05T23:31:35.551Z,74.14
2022-11-05T23:34:03.118Z,73.94
2022-11-05T23:36:48.992Z,73.32
2022-11-05T23:39:16.181Z,73.35
2022-11-05T23:42:01.750Z,73.61
2022-11-05T23:44:47.287Z,73.79
2022-11-05T23:47:32.801Z,72.96
2022-11-05T23:49:59.733Z,73.12
2022-11-05T23:52:27.023Z,73.59
2022-11-05T23:54:53.977Z,73.20
2022-11-05T23:57:20.871Z,73.20
2022-11-05T23:59:48.637Z,73.76
